Depeyster, New York
Current Conditions -  °F | °C
As of 9:18 AM on Saturday 25 Oct 2014 (Local Time) from KGTB Reporting Station
Broken Clouds Broken Clouds  
Wind Chill: 45°   Ceiling: 5500
Heat Index: 48°   Visibility: 10mi
Dew Point: 43°   Wind: 8mph
Humidity: 82%   Direction: 210°SSW
Pressure: 29.77"   Gusts: NA
Location:  44.5526°N, 75.4348°W
Report Text: KGTB 251318Z AUTO 21007KT 10SM SCT024 BKN055 09/06 A2977 RMK AO2
Loading
Personal Weather Stations






























Interactive Weather Map
Tropical Storm Tracking
New forecast layout! Learn more

10-Day Weather Forecast

Advertisements
Track Severe Weather on mobile